Time;durP1;ratioP1;P1;durP2;ratioP2;P2;SDS_P1;SDS_P2;PMS_P1;PMS_P2;Temp;Humidity;BMP_temperature;BMP_pressure;BME280_temperature;BME280_humidity;BME280_pressure;Samples;Min_cycle;Max_cycle;Signal;HPM_P1;HPM_P2
2023/08/10 00:00:27;;;;;;;1.17;0.85;;;;;;;18.92;60.47;94598.94;5045759;28;20202;-56
2023/08/10 00:02:55;;;;;;;0.80;0.70;;;;;;;18.86;60.61;94589.47;5044138;28;20223;-59
2023/08/10 00:05:21;;;;;;;1.70;0.90;;;;;;;18.86;60.68;94594.94;5048754;28;20230;-56
2023/08/10 00:07:48;;;;;;;0.65;0.55;;;;;;;18.86;60.54;94597.69;5049131;28;20717;-58
2023/08/10 00:10:15;;;;;;;0.70;0.70;;;;;;;18.89;60.45;94596.94;5043258;28;20798;-56
2023/08/10 00:12:42;;;;;;;0.80;0.60;;;;;;;18.87;60.69;94596.53;5042607;28;20258;-57
2023/08/10 00:15:11;;;;;;;1.13;0.70;;;;;;;18.87;60.64;94591.03;5036633;28;20208;-56
2023/08/10 00:17:38;;;;;;;0.98;0.80;;;;;;;18.81;60.97;94606.31;5042600;28;20692;-58
2023/08/10 00:20:09;;;;;;;2.08;0.80;;;;;;;18.76;61.12;94606.66;5048973;28;20314;-57
2023/08/10 00:22:37;;;;;;;0.90;0.70;;;;;;;18.79;60.93;94597.66;5039411;28;20218;-58
2023/08/10 00:25:05;;;;;;;0.80;0.80;;;;;;;18.78;60.99;94609.81;5051349;28;20925;-55
2023/08/10 00:27:32;;;;;;;0.60;0.60;;;;;;;18.80;61.03;94588.25;5048556;28;20239;-57
2023/08/10 00:29:59;;;;;;;1.23;0.63;;;;;;;18.77;61.03;94580.78;5040455;28;20257;-57
2023/08/10 00:32:27;;;;;;;2.55;0.85;;;;;;;18.77;61.05;94586.25;5039678;28;20830;-57
2023/08/10 00:34:54;;;;;;;0.85;0.80;;;;;;;18.75;61.13;94581.16;5048201;28;20265;-56
2023/08/10 00:37:21;;;;;;;0.80;0.80;;;;;;;18.72;61.35;94578.41;5046862;28;20204;-57
2023/08/10 00:39:48;;;;;;;1.15;0.75;;;;;;;18.67;61.83;94576.00;5040298;28;20208;-55
2023/08/10 00:42:14;;;;;;;0.73;0.60;;;;;;;18.63;62.23;94569.69;5043245;28;20215;-57
2023/08/10 00:44:41;;;;;;;1.25;0.70;;;;;;;18.60;62.27;94573.19;5046352;28;20301;-58
2023/08/10 00:47:08;;;;;;;0.50;0.50;;;;;;;18.57;62.50;94568.44;5033786;28;20232;-58
2023/08/10 00:49:37;;;;;;;0.90;0.80;;;;;;;18.56;62.57;94569.63;5035795;28;20215;-55
2023/08/10 00:52:04;;;;;;;1.35;0.90;;;;;;;18.47;62.73;94565.22;5043961;28;20215;-56
2023/08/10 00:54:32;;;;;;;0.80;0.80;;;;;;;18.52;62.55;94555.06;5048646;28;20640;-55
2023/08/10 00:56:59;;;;;;;1.23;0.93;;;;;;;18.46;62.72;94549.94;5038851;28;20265;-58
2023/08/10 00:59:28;;;;;;;2.45;1.00;;;;;;;18.41;62.93;94558.53;5044596;28;20227;-57
2023/08/10 01:01:55;;;;;;;3.85;1.00;;;;;;;18.35;63.14;94554.53;5050026;28;20207;-57
2023/08/10 01:04:22;;;;;;;0.60;0.60;;;;;;;18.31;63.43;94556.44;5036582;28;20228;-52
2023/08/10 01:07:00;;;;;;;1.23;0.90;;;;;;;18.29;63.58;94553.31;5048376;28;20207;-56
2023/08/10 01:09:37;;;;;;;1.35;1.10;;;;;;;18.26;63.87;94562.31;5049703;28;20249;-56
2023/08/10 01:12:13;;;;;;;0.77;0.77;;;;;;;18.23;63.75;94568.53;5038165;28;20265;-58
2023/08/10 01:14:50;;;;;;;1.05;0.73;;;;;;;18.16;64.21;94563.00;5046233;28;20292;-55
2023/08/10 01:17:24;;;;;;;1.10;1.00;;;;;;;18.14;64.33;94565.31;5037412;28;20206;-56
2023/08/10 01:19:53;;;;;;;0.77;0.75;;;;;;;18.14;64.41;94565.31;5038964;28;20254;-56
2023/08/10 01:22:29;;;;;;;1.17;0.90;;;;;;;18.13;64.42;94569.22;5035370;28;20489;-59
2023/08/10 01:25:01;;;;;;;1.20;0.93;;;;;;;18.04;64.88;94561.28;5049695;28;20265;-57
2023/08/10 01:27:29;;;;;;;1.65;1.15;;;;;;;17.98;65.04;94567.50;5046115;28;20201;-57
2023/08/10 01:29:57;;;;;;;1.48;1.10;;;;;;;17.96;65.17;94570.63;5038893;28;20730;-57
2023/08/10 01:32:24;;;;;;;1.00;0.90;;;;;;;17.93;65.39;94576.06;5045168;28;20200;-57
2023/08/10 01:34:51;;;;;;;1.23;0.88;;;;;;;17.90;65.32;94574.09;5040218;28;20224;-55
2023/08/10 01:37:18;;;;;;;0.80;0.80;;;;;;;17.84;65.62;94573.63;5048496;28;20663;-56
2023/08/10 01:39:45;;;;;;;1.50;1.20;;;;;;;17.81;65.84;94563.41;5040419;28;20212;-58
2023/08/10 01:42:14;;;;;;;1.10;0.93;;;;;;;17.75;66.35;94564.91;5047492;28;20212;-56
2023/08/10 01:44:41;;;;;;;1.00;0.90;;;;;;;17.77;66.29;94567.28;5047645;28;20297;-57
2023/08/10 01:47:15;;;;;;;1.52;0.80;;;;;;;17.77;66.23;94561.81;5039890;28;20583;-57
2023/08/10 01:49:44;;;;;;;1.42;1.08;;;;;;;17.80;66.14;94566.50;5042282;28;20276;-58
2023/08/10 01:52:13;;;;;;;1.15;0.90;;;;;;;17.83;65.96;94565.78;5035207;28;20214;-59
2023/08/10 01:54:40;;;;;;;2.03;0.80;;;;;;;17.82;65.87;94558.72;5045751;28;20381;-56
2023/08/10 01:57:08;;;;;;;1.10;0.80;;;;;;;17.80;66.27;94572.78;5034305;28;20208;-57
2023/08/10 01:59:37;;;;;;;2.00;0.80;;;;;;;17.81;66.20;94568.09;5036298;28;20732;-58
2023/08/10 02:02:03;;;;;;;2.53;0.88;;;;;;;17.73;66.48;94576.25;5034704;28;20209;-57
2023/08/10 02:04:30;;;;;;;3.17;1.10;;;;;;;17.69;66.91;94572.66;5043583;28;20286;-55
2023/08/10 02:06:57;;;;;;;5.95;1.13;;;;;;;17.65;67.00;94566.34;5042614;28;20251;-56
2023/08/10 02:09:24;;;;;;;0.93;0.80;;;;;;;17.62;67.05;94572.56;5048311;28;20269;-57
2023/08/10 02:11:51;;;;;;;1.70;0.80;;;;;;;17.57;66.99;94564.66;5048670;28;20691;-58
2023/08/10 02:14:19;;;;;;;0.80;0.80;;;;;;;17.63;67.34;94574.16;5036751;28;20200;-57
2023/08/10 02:16:47;;;;;;;1.23;1.00;;;;;;;17.57;67.45;94570.16;5039069;28;20427;-55
2023/08/10 02:19:14;;;;;;;1.00;0.90;;;;;;;17.53;67.83;94569.31;5043485;28;20207;-59
2023/08/10 02:21:41;;;;;;;1.10;0.98;;;;;;;17.55;67.62;94571.69;5039578;28;20215;-58
2023/08/10 02:24:08;;;;;;;1.23;1.05;;;;;;;17.56;67.76;94582.28;5043297;28;20254;-56
2023/08/10 02:26:34;;;;;;;2.95;0.90;;;;;;;17.58;67.64;94582.69;5038624;28;20270;-58
2023/08/10 02:29:01;;;;;;;0.77;0.77;;;;;;;17.61;67.74;94587.44;5047834;28;20637;-57
2023/08/10 02:31:28;;;;;;;1.30;0.90;;;;;;;17.65;67.39;94603.91;5041872;28;20291;-59
2023/08/10 02:33:56;;;;;;;1.23;1.00;;;;;;;17.61;67.90;94608.56;5045006;28;20249;-57
2023/08/10 02:36:23;;;;;;;1.50;1.10;;;;;;;17.64;67.72;94625.03;5038249;28;20266;-56
2023/08/10 02:38:50;;;;;;;0.93;0.80;;;;;;;17.66;68.40;94632.91;5044387;28;20215;-58
2023/08/10 02:41:17;;;;;;;1.15;1.05;;;;;;;17.61;68.79;94649.66;5034185;28;20652;-59
2023/08/10 02:43:44;;;;;;;1.80;1.23;;;;;;;17.49;71.81;94656.16;5040866;28;20273;-59
2023/08/10 02:46:11;;;;;;;4.03;1.40;;;;;;;17.40;72.83;94652.88;5046753;28;20243;-59
2023/08/10 02:48:38;;;;;;;2.47;1.40;;;;;;;17.30;74.48;94661.72;5036489;28;20211;-58
2023/08/10 02:51:06;;;;;;;2.90;1.40;;;;;;;17.29;76.21;94668.38;5035505;28;20204;-58
2023/08/10 02:53:33;;;;;;;1.73;1.38;;;;;;;17.00;76.70;94667.94;5044387;28;20212;-57
2023/08/10 02:56:00;;;;;;;1.85;1.13;;;;;;;16.85;79.00;94682.53;5037171;28;20715;-57
2023/08/10 02:58:27;;;;;;;3.47;1.20;;;;;;;16.57;78.98;94687.50;5041303;28;20235;-57
2023/08/10 03:00:53;;;;;;;1.67;1.17;;;;;;;16.64;75.47;94701.34;5046614;28;20203;-57
2023/08/10 03:03:21;;;;;;;2.85;1.60;;;;;;;16.54;81.53;94710.09;5035580;28;20648;-58
2023/08/10 03:05:48;;;;;;;3.40;1.60;;;;;;;16.25;84.89;94715.06;5047614;28;20664;-57
2023/08/10 03:08:16;;;;;;;1.55;1.40;;;;;;;16.08;87.00;94709.22;5042473;28;20238;-57
2023/08/10 03:10:43;;;;;;;1.50;1.40;;;;;;;16.06;87.60;94712.31;5047817;28;20215;-59
2023/08/10 03:13:10;;;;;;;1.30;1.10;;;;;;;15.82;88.75;94715.34;5048488;28;20269;-58
2023/08/10 03:15:37;;;;;;;3.88;1.70;;;;;;;15.68;91.29;94723.22;5048281;28;20212;-58
2023/08/10 03:18:04;;;;;;;4.15;1.50;;;;;;;15.68;92.50;94717.75;5039510;28;20703;-59
2023/08/10 03:20:31;;;;;;;2.90;1.50;;;;;;;15.74;92.85;94705.41;5045340;28;20245;-58
2023/08/10 03:22:58;;;;;;;3.05;1.80;;;;;;;15.85;94.18;94711.91;5034662;28;20199;-57
2023/08/10 03:25:26;;;;;;;3.15;1.52;;;;;;;16.01;96.38;94704.41;5047985;28;20269;-57
2023/08/10 03:27:53;;;;;;;2.00;1.40;;;;;;;15.95;95.58;94701.19;5031124;28;20208;-58
2023/08/10 03:30:21;;;;;;;3.65;1.67;;;;;;;15.93;95.61;94698.00;5042095;28;20377;-59
2023/08/10 03:32:48;;;;;;;2.70;1.95;;;;;;;15.91;96.72;94694.06;5035933;28;20306;-58
2023/08/10 03:35:15;;;;;;;1.80;1.70;;;;;;;15.89;96.51;94696.34;5042113;28;20204;-59
2023/08/10 03:37:41;;;;;;;4.80;1.85;;;;;;;15.80;94.63;94693.84;5042570;28;20270;-58
2023/08/10 03:40:09;;;;;;;3.33;1.38;;;;;;;15.72;92.55;94689.34;5043678;28;20204;-58
2023/08/10 03:42:37;;;;;;;1.83;1.40;;;;;;;15.84;93.17;94688.47;5047590;28;20227;-58
2023/08/10 03:45:05;;;;;;;3.10;1.70;;;;;;;16.02;94.69;94684.13;5042632;28;20236;-58
2023/08/10 03:47:32;;;;;;;4.32;1.60;;;;;;;16.02;95.42;94695.06;5044105;28;20604;-58
2023/08/10 03:49:59;;;;;;;4.18;1.63;;;;;;;15.98;96.87;94694.22;5044698;28;20207;-58
2023/08/10 03:52:26;;;;;;;4.03;1.42;;;;;;;15.99;95.65;94704.75;5038274;28;20315;-58
2023/08/10 03:54:52;;;;;;;3.10;2.20;;;;;;;15.85;93.27;94704.47;5037280;28;20196;-58
2023/08/10 03:57:19;;;;;;;2.00;1.48;;;;;;;15.75;94.98;94717.91;5046674;28;20204;-58
2023/08/10 03:59:47;;;;;;;5.13;1.73;;;;;;;15.79;96.34;94732.44;5042630;28;20277;-57
2023/08/10 04:02:14;;;;;;;4.10;2.92;;;;;;;15.77;97.89;94738.25;5036750;28;20208;-57
2023/08/10 04:04:41;;;;;;;4.10;2.35;;;;;;;15.65;98.36;94746.56;5047277;28;20237;-58
2023/08/10 04:07:09;;;;;;;3.33;2.25;;;;;;;15.63;99.14;94749.66;5035760;28;20270;-56
2023/08/10 04:09:36;;;;;;;2.30;1.83;;;;;;;15.80;98.16;94747.69;5050279;28;20322;-58
2023/08/10 04:12:02;;;;;;;2.35;2.08;;;;;;;15.84;98.30;94754.03;5040988;28;20212;-58
2023/08/10 04:14:30;;;;;;;2.97;1.88;;;;;;;15.91;98.94;94738.56;5043065;28;20196;-58
2023/08/10 04:16:59;;;;;;;4.35;1.77;;;;;;;15.97;100.00;94739.06;5041621;28;20254;-58
2023/08/10 04:19:26;;;;;;;2.78;1.90;;;;;;;15.94;100.00;94737.06;5048375;28;20257;-58
2023/08/10 04:21:52;;;;;;;2.80;2.05;;;;;;;15.85;100.00;94728.28;5040311;28;20212;-58
2023/08/10 04:24:19;;;;;;;2.97;1.90;;;;;;;15.79;100.00;94735.16;5048502;28;20594;-58
2023/08/10 04:26:48;;;;;;;4.53;2.20;;;;;;;15.91;100.00;94743.22;5040134;28;20220;-58
2023/08/10 04:29:16;;;;;;;4.68;1.98;;;;;;;15.94;100.00;94747.97;5044126;28;20211;-59
2023/08/10 04:31:43;;;;;;;4.95;1.98;;;;;;;15.90;100.00;94760.78;5034253;28;20196;-59
2023/08/10 04:34:11;;;;;;;4.25;2.00;;;;;;;15.87;100.00;94786.06;5044026;28;20202;-58
2023/08/10 04:36:38;;;;;;;3.45;2.20;;;;;;;15.84;100.00;94789.53;5047262;28;20269;-59
2023/08/10 04:39:06;;;;;;;2.25;1.80;;;;;;;15.82;100.00;94795.34;5045908;28;20208;-59
2023/08/10 04:41:33;;;;;;;2.78;2.08;;;;;;;15.66;100.00;94800.06;5043676;28;20314;-59
2023/08/10 04:44:00;;;;;;;1.65;1.55;;;;;;;15.51;100.00;94793.44;5050051;28;20239;-59
2023/08/10 04:46:26;;;;;;;4.13;2.03;;;;;;;15.58;100.00;94799.06;5049894;28;20621;-59
2023/08/10 04:48:53;;;;;;;4.78;2.15;;;;;;;15.66;100.00;94796.53;5036200;28;20204;-59
2023/08/10 04:51:22;;;;;;;4.13;2.38;;;;;;;15.72;100.00;94797.81;5037294;28;20240;-60
2023/08/10 04:53:48;;;;;;;6.72;2.10;;;;;;;15.74;100.00;94790.84;5048180;28;20211;-58
2023/08/10 04:56:15;;;;;;;5.30;1.98;;;;;;;15.62;100.00;94780.06;5038231;28;20262;-58
2023/08/10 04:58:42;;;;;;;5.65;2.45;;;;;;;15.66;100.00;94791.06;5040608;28;20281;-58
2023/08/10 05:01:09;;;;;;;5.25;2.40;;;;;;;15.74;100.00;94798.25;5049886;28;20225;-59
2023/08/10 05:03:36;;;;;;;2.38;1.70;;;;;;;15.79;100.00;94795.25;5049972;28;20715;-60
2023/08/10 05:06:03;;;;;;;2.97;2.22;;;;;;;15.69;100.00;94801.28;5039362;28;20634;-58
2023/08/10 05:08:31;;;;;;;6.18;2.53;;;;;;;15.73;100.00;94804.88;5044818;28;20664;-59
2023/08/10 05:10:58;;;;;;;4.68;2.17;;;;;;;15.64;100.00;94799.59;5046640;28;20211;-59
2023/08/10 05:13:27;;;;;;;4.75;2.38;;;;;;;15.53;100.00;94793.09;5036328;28;20200;-59
2023/08/10 05:15:54;;;;;;;3.05;2.28;;;;;;;15.51;100.00;94789.91;5041497;28;20668;-60
2023/08/10 05:18:22;;;;;;;3.83;2.40;;;;;;;15.54;100.00;94790.00;5040908;28;20813;-58
2023/08/10 05:20:49;;;;;;;2.85;2.13;;;;;;;15.42;100.00;94792.84;5046227;28;20230;-58
2023/08/10 05:23:15;;;;;;;6.15;2.55;;;;;;;15.32;100.00;94793.34;5039127;28;20648;-58
2023/08/10 05:25:44;;;;;;;4.38;2.08;;;;;;;15.17;100.00;94791.44;5041903;28;20277;-60
2023/08/10 05:28:11;;;;;;;2.67;1.80;;;;;;;15.12;100.00;94783.50;5046554;28;20230;-58
2023/08/10 05:30:38;;;;;;;1.85;1.70;;;;;;;15.02;100.00;94776.66;5049475;28;20548;-59
2023/08/10 05:33:04;;;;;;;3.40;1.77;;;;;;;14.91;100.00;94773.63;5039464;28;20211;-59
2023/08/10 05:35:32;;;;;;;5.00;3.40;;;;;;;14.89;100.00;94770.50;5039811;28;20211;-59
2023/08/10 05:37:59;;;;;;;4.07;3.35;;;;;;;14.90;100.00;94766.59;5039052;28;20616;-57
2023/08/10 05:40:25;;;;;;;4.80;3.90;;;;;;;14.85;100.00;94764.16;5035274;28;20200;-60
2023/08/10 05:42:54;;;;;;;5.65;4.00;;;;;;;14.86;100.00;94765.72;5049353;28;20212;-57
2023/08/10 05:45:21;;;;;;;6.82;3.60;;;;;;;14.78;100.00;94768.59;5045014;28;20228;-59
2023/08/10 05:47:51;;;;;;;7.50;4.68;;;;;;;14.87;100.00;94769.25;5038172;28;20215;-60
2023/08/10 05:50:19;;;;;;;2.55;2.35;;;;;;;14.86;100.00;94773.91;5040252;28;20207;-58
2023/08/10 05:52:46;;;;;;;7.82;3.22;;;;;;;14.84;100.00;94768.00;5042090;28;20203;-61
2023/08/10 05:55:14;;;;;;;2.33;2.13;;;;;;;14.83;100.00;94755.53;5048366;28;20237;-57
2023/08/10 05:57:41;;;;;;;1.63;1.35;;;;;;;14.75;100.00;94723.78;5047301;28;20302;-59
2023/08/10 06:00:13;;;;;;;3.28;1.60;;;;;;;14.70;100.00;94713.09;5046910;28;20207;-59
2023/08/10 06:02:41;;;;;;;5.28;2.97;;;;;;;14.59;100.00;94712.06;5047516;28;20299;-57
2023/08/10 06:05:08;;;;;;;2.25;1.77;;;;;;;14.52;100.00;94717.31;5047681;28;20238;-57
2023/08/10 06:07:35;;;;;;;2.17;1.73;;;;;;;14.53;100.00;94724.34;5047610;28;20592;-57
2023/08/10 06:10:03;;;;;;;6.07;2.30;;;;;;;14.47;100.00;94736.66;5044284;28;20199;-59
2023/08/10 06:12:31;;;;;;;3.10;2.28;;;;;;;14.56;100.00;94745.47;5044875;28;20625;-59
2023/08/10 06:14:58;;;;;;;3.50;2.00;;;;;;;14.51;100.00;94748.44;5049064;28;20199;-58
2023/08/10 06:17:27;;;;;;;5.95;3.58;;;;;;;14.47;100.00;94753.03;5048756;28;20277;-59
2023/08/10 06:19:54;;;;;;;5.65;3.40;;;;;;;14.50;100.00;94757.75;5046458;28;20239;-58
2023/08/10 06:22:24;;;;;;;4.80;3.38;;;;;;;14.52;100.00;94756.25;5048598;28;20203;-57
2023/08/10 06:24:51;;;;;;;3.88;2.42;;;;;;;14.48;100.00;94760.06;5047023;28;20739;-59
2023/08/10 06:27:17;;;;;;;4.63;2.22;;;;;;;14.51;100.00;94765.59;5046799;28;20204;-58
2023/08/10 06:29:44;;;;;;;3.42;2.28;;;;;;;14.48;100.00;94760.06;5045518;28;20265;-58
2023/08/10 06:32:11;;;;;;;2.97;2.50;;;;;;;14.48;100.00;94760.06;5044893;28;20203;-57
2023/08/10 06:34:39;;;;;;;4.40;2.72;;;;;;;14.51;100.00;94762.06;5045284;28;20211;-56
2023/08/10 06:37:06;;;;;;;3.85;2.47;;;;;;;14.61;100.00;94766.22;5044150;28;20212;-59
2023/08/10 06:39:34;;;;;;;7.07;2.70;;;;;;;14.61;100.00;94777.94;5041935;28;20211;-58
2023/08/10 06:42:02;;;;;;;3.10;2.30;;;;;;;14.69;100.00;94781.63;5044578;28;20208;-58
2023/08/10 06:44:29;;;;;;;6.13;3.00;;;;;;;14.76;100.00;94787.28;5047429;28;20235;-59
2023/08/10 06:46:56;;;;;;;4.78;2.63;;;;;;;14.75;100.00;94791.16;5043118;28;20192;-59
2023/08/10 06:49:23;;;;;;;3.15;2.60;;;;;;;14.87;100.00;94794.59;5044695;28;20215;-59
2023/08/10 06:51:53;;;;;;;3.40;2.60;;;;;;;15.02;100.00;94800.41;5046120;28;20257;-59
2023/08/10 06:54:20;;;;;;;5.43;2.70;;;;;;;15.17;100.00;94791.44;5049450;28;20215;-58
2023/08/10 06:56:47;;;;;;;5.95;3.00;;;;;;;15.24;100.00;94797.06;5044814;28;20212;-59
2023/08/10 06:59:13;;;;;;;3.45;2.45;;;;;;;15.30;100.00;94795.66;5029085;28;20274;-59
2023/08/10 07:06:54;;;;;;;7.28;2.80;;;;;;;15.47;100.00;94798.00;5639745;22;20239;-72
2023/08/10 07:09:22;;;;;;;10.27;3.85;;;;;;;15.64;100.00;94789.47;5028700;28;20204;-70
2023/08/10 07:11:49;;;;;;;3.85;3.17;;;;;;;15.64;100.00;94797.66;5029314;28;20223;-74
2023/08/10 07:14:16;;;;;;;4.75;2.58;;;;;;;15.73;100.00;94802.13;5032315;28;20212;-71
2023/08/10 07:16:43;;;;;;;6.32;3.85;;;;;;;15.88;100.00;94801.31;5033109;28;20215;-71
2023/08/10 07:19:10;;;;;;;5.20;3.60;;;;;;;16.07;100.00;94795.88;5032832;28;20572;-72
2023/08/10 07:21:37;;;;;;;5.32;3.42;;;;;;;16.19;100.00;94798.47;5033342;28;20674;-72
2023/08/10 07:24:06;;;;;;;5.63;3.75;;;;;;;16.31;100.00;94794.81;5032516;28;20205;-71
2023/08/10 07:26:33;;;;;;;4.80;3.85;;;;;;;16.45;100.00;94799.78;5032748;28;20276;-72
2023/08/10 07:29:00;;;;;;;4.82;3.35;;;;;;;16.44;100.00;94806.41;5032973;28;20584;-74
2023/08/10 07:31:31;;;;;;;4.50;2.80;;;;;;;16.31;100.00;94803.81;5033114;28;20659;-73
2023/08/10 07:33:58;;;;;;;3.92;2.92;;;;;;;16.42;100.00;94795.03;5033011;28;20305;-70
2023/08/10 07:36:26;;;;;;;3.83;3.42;;;;;;;16.31;100.00;94809.28;5033247;28;20212;-74
2023/08/10 07:38:55;;;;;;;4.07;3.00;;;;;;;16.20;100.00;94800.06;5032499;28;20248;-74
2023/08/10 07:41:23;;;;;;;3.45;3.10;;;;;;;16.66;100.00;94805.72;5031965;28;20306;-73
2023/08/10 07:43:50;;;;;;;5.40;3.45;;;;;;;17.11;100.00;94798.69;5032212;28;20291;-74
2023/08/10 07:46:17;;;;;;;5.47;3.70;;;;;;;17.40;100.00;94803.50;5032654;28;20278;-74
2023/08/10 07:48:45;;;;;;;6.93;3.40;;;;;;;17.75;100.00;94806.84;5031623;28;20196;-73
2023/08/10 07:51:12;;;;;;;4.20;2.80;;;;;;;17.65;98.95;94807.44;5032036;28;20204;-74
2023/08/10 07:53:39;;;;;;;8.10;2.85;;;;;;;17.68;100.00;94812.19;5029635;28;20621;-74
2023/08/10 07:56:06;;;;;;;4.70;3.22;;;;;;;18.27;100.00;94799.72;5031730;28;20204;-74
2023/08/10 07:58:34;;;;;;;4.20;2.60;;;;;;;18.67;96.78;94801.81;5031401;28;20611;-74
2023/08/10 08:01:01;;;;;;;6.75;3.78;;;;;;;19.03;94.02;94802.97;5029117;28;20212;-75
2023/08/10 08:03:27;;;;;;;4.63;3.20;;;;;;;19.36;93.68;94810.38;5031748;28;20297;-74
2023/08/10 08:05:54;;;;;;;4.30;3.08;;;;;;;19.53;89.08;94803.50;5030938;28;20216;-74
2023/08/10 08:08:21;;;;;;;3.85;2.70;;;;;;;19.21;86.22;94810.63;5031454;28;20209;-74
2023/08/10 08:10:48;;;;;;;7.90;3.13;;;;;;;20.05;88.38;94796.00;5031421;28;20212;-74
2023/08/10 08:13:15;;;;;;;5.03;2.60;;;;;;;21.04;83.28;94801.97;5030889;28;20201;-74
2023/08/10 08:15:43;;;;;;;3.80;2.70;;;;;;;21.17;79.06;94794.91;5031749;28;20204;-74
2023/08/10 08:18:54;;;;;;;4.53;2.95;;;;;;;20.26;77.82;94800.81;5031457;28;20193;-74
2023/08/10 08:21:22;;;;;;;5.32;2.67;;;;;;;19.40;84.77;94805.72;5021123;28;20310;-75
2023/08/10 08:23:52;;;;;;;8.85;3.05;;;;;;;19.33;85.80;94804.84;5030507;28;20239;-77
2023/08/10 08:26:20;;;;;;;3.83;2.88;;;;;;;19.44;82.80;94812.00;5032340;28;20766;-77
2023/08/10 08:28:47;;;;;;;4.53;3.30;;;;;;;19.78;82.09;94804.47;5031337;28;20208;-77
2023/08/10 08:31:16;;;;;;;4.32;3.28;;;;;;;19.83;82.73;94812.34;5031118;28;20258;-77
2023/08/10 08:33:43;;;;;;;3.97;3.30;;;;;;;20.06;79.98;94809.38;5030457;28;20572;-78
2023/08/10 08:36:10;;;;;;;4.30;3.15;;;;;;;19.92;79.33;94806.53;5031915;28;20235;-77
2023/08/10 08:38:38;;;;;;;4.57;3.00;;;;;;;20.42;81.09;94804.88;5030860;28;20562;-77
2023/08/10 08:41:06;;;;;;;4.38;3.28;;;;;;;20.97;76.88;94795.63;5029591;28;20246;-76
2023/08/10 08:43:33;;;;;;;8.32;3.00;;;;;;;21.10;73.66;94794.88;5031033;28;20204;-77
2023/08/10 08:46:01;;;;;;;3.28;2.90;;;;;;;21.50;75.52;94801.25;5029761;28;20290;-76
2023/08/10 08:48:29;;;;;;;5.82;3.20;;;;;;;21.17;75.66;94794.91;5032646;28;20216;-80
2023/08/10 08:50:58;;;;;;;5.45;2.97;;;;;;;20.96;75.89;94805.06;5031333;28;20204;-76
2023/08/10 08:53:25;;;;;;;3.65;2.85;;;;;;;20.32;76.63;94808.34;5031313;28;20209;-77
2023/08/10 08:55:52;;;;;;;3.45;2.70;;;;;;;21.11;77.42;94796.44;5031275;28;20311;-75
2023/08/10 08:58:20;;;;;;;3.28;2.90;;;;;;;21.69;75.94;94798.13;5031405;28;20227;-75
2023/08/10 09:00:48;;;;;;;3.47;2.72;;;;;;;22.25;72.99;94805.56;5030686;28;20208;-76
2023/08/10 09:03:16;;;;;;;3.65;2.40;;;;;;;22.87;68.82;94799.44;5027473;28;20212;-78
2023/08/10 09:05:45;;;;;;;3.53;3.00;;;;;;;23.40;68.50;94793.59;5028677;28;20228;-77
2023/08/10 09:08:14;;;;;;;4.72;2.92;;;;;;;23.99;69.23;94796.31;5029576;28;20866;-77
2023/08/10 09:10:41;;;;;;;3.30;3.00;;;;;;;23.96;62.73;94788.84;5029124;28;20704;-75
2023/08/10 09:13:12;;;;;;;3.35;3.00;;;;;;;22.69;65.34;94799.47;5029618;28;20268;-78
2023/08/10 09:15:39;;;;;;;5.18;3.40;;;;;;;22.91;65.87;94799.44;5031208;28;20207;-75
2023/08/10 09:18:06;;;;;;;3.88;3.20;;;;;;;22.94;64.40;94793.91;5029770;28;20205;-77
2023/08/10 09:20:33;;;;;;;4.50;3.10;;;;;;;22.93;66.73;94813.63;5030611;28;20219;-75
2023/08/10 09:23:02;;;;;;;4.18;3.35;;;;;;;22.85;68.46;94801.03;5018122;28;20667;-77
2023/08/10 09:25:36;;;;;;;4.35;3.45;;;;;;;22.77;67.26;94800.28;5029036;28;20718;-77
2023/08/10 09:28:08;;;;;;;3.17;2.83;;;;;;;23.06;63.81;94800.94;5025147;28;20196;-75
2023/08/10 09:30:35;;;;;;;3.30;3.00;;;;;;;23.43;65.31;94796.75;5028001;28;20236;-77
2023/08/10 09:33:02;;;;;;;4.28;3.20;;;;;;;23.80;64.45;94793.31;5028971;28;20208;-75
2023/08/10 09:35:31;;;;;;;3.92;3.10;;;;;;;23.80;63.12;94794.13;5021632;28;20211;-76
2023/08/10 09:38:03;;;;;;;3.83;3.10;;;;;;;24.13;60.22;94794.63;5028292;28;20631;-76
2023/08/10 09:40:30;;;;;;;4.47;3.00;;;;;;;24.18;60.35;94791.41;5027052;28;20208;-77
2023/08/10 09:42:57;;;;;;;3.85;2.90;;;;;;;24.27;59.36;94794.50;5030047;28;20203;-78
2023/08/10 09:45:24;;;;;;;6.78;2.47;;;;;;;24.16;60.40;94789.06;5030261;28;20208;-76
2023/08/10 09:47:51;;;;;;;3.03;2.55;;;;;;;24.18;58.15;94791.41;5030117;28;20204;-77
2023/08/10 09:50:18;;;;;;;5.00;2.72;;;;;;;24.71;58.70;94783.34;5030359;28;20216;-76
2023/08/10 09:52:46;;;;;;;3.40;2.83;;;;;;;24.16;59.48;94777.19;5030148;28;20231;-73
2023/08/10 09:55:15;;;;;;;3.55;2.80;;;;;;;24.41;60.46;94777.75;5030100;28;20294;-76
2023/08/10 09:57:44;;;;;;;3.17;2.72;;;;;;;24.25;57.93;94781.06;5030143;28;20575;-76
2023/08/10 10:00:18;;;;;;;3.30;2.80;;;;;;;23.53;59.57;94784.84;5030375;28;20201;-77
2023/08/10 10:02:45;;;;;;;3.15;2.70;;;;;;;23.86;58.93;94781.44;5028500;28;20213;-77
2023/08/10 10:05:12;;;;;;;3.88;2.70;;;;;;;24.34;59.84;94784.13;5030611;28;20663;-79
2023/08/10 10:07:40;;;;;;;4.57;2.70;;;;;;;24.28;58.74;94779.47;5029220;28;20672;-77
2023/08/10 10:10:13;;;;;;;3.90;2.78;;;;;;;24.32;56.33;94783.00;5018678;28;20212;-78
2023/08/10 10:12:44;;;;;;;4.40;2.85;;;;;;;24.21;58.28;94785.03;5029826;28;20255;-76
2023/08/10 10:15:11;;;;;;;3.88;2.92;;;;;;;23.45;57.97;94784.09;5029823;28;20652;-76
2023/08/10 10:17:40;;;;;;;4.55;3.00;;;;;;;23.37;59.73;94791.66;5029865;28;20212;-77
2023/08/10 10:20:11;;;;;;;3.83;3.00;;;;;;;22.93;60.24;94786.00;5031192;28;20215;-79
2023/08/10 10:22:39;;;;;;;4.95;3.33;;;;;;;22.41;61.35;94788.56;5035925;28;20255;-79
2023/08/10 10:25:06;;;;;;;3.40;2.67;;;;;;;23.59;57.72;94788.78;5030038;28;20219;-79
2023/08/10 10:27:40;;;;;;;3.30;2.55;;;;;;;24.67;57.98;94779.81;5030304;28;20229;-79
2023/08/10 10:30:17;;;;;;;3.65;2.72;;;;;;;24.39;54.92;94785.66;5029672;28;20724;-78
2023/08/10 10:32:46;;;;;;;3.20;2.40;;;;;;;24.27;53.55;94780.66;5016549;28;20204;-78
2023/08/10 10:35:16;;;;;;;2.28;1.95;;;;;;;25.10;53.23;94774.53;5020455;28;20242;-78
2023/08/10 10:37:43;;;;;;;3.25;2.10;;;;;;;25.49;51.75;94768.41;5031447;28;20704;-79
2023/08/10 10:40:18;;;;;;;3.40;2.30;;;;;;;25.16;54.09;94772.06;5029142;28;20204;-79
2023/08/10 10:43:06;;;;;;;5.30;2.50;;;;;;;25.72;53.34;94772.44;5029782;28;20215;-74
2023/08/10 10:45:37;;;;;;;4.43;2.78;;;;;;;25.58;52.31;94775.41;5028979;28;20679;-80
2023/08/10 10:48:06;;;;;;;4.15;2.50;;;;;;;25.22;55.04;94764.84;5029761;28;20214;-77
2023/08/10 10:50:34;;;;;;;4.00;2.53;;;;;;;25.43;53.66;94769.28;5029468;28;20571;-79
2023/08/10 10:53:04;;;;;;;3.80;2.47;;;;;;;24.79;52.47;94764.63;5028868;28;20279;-78
2023/08/10 10:55:40;;;;;;;2.53;2.30;;;;;;;24.44;54.40;94772.16;5030163;28;20298;-79
2023/08/10 10:58:09;;;;;;;2.80;2.50;;;;;;;24.59;53.53;94772.78;5029720;28;20347;-79
2023/08/10 11:00:38;;;;;;;3.75;2.42;;;;;;;25.08;53.59;94765.06;5028779;28;20223;-79
2023/08/10 11:03:07;;;;;;;2.80;2.35;;;;;;;25.39;51.92;94757.47;5029622;28;20274;-80
2023/08/10 11:05:33;;;;;;;3.00;2.40;;;;;;;24.28;53.67;94768.41;5029693;28;20208;-78
2023/08/10 11:08:03;;;;;;;5.00;2.60;;;;;;;24.22;54.42;94762.47;5027742;28;20236;-72
2023/08/10 11:10:31;;;;;;;3.50;2.60;;;;;;;23.83;55.59;94773.94;5027979;28;20211;-72
2023/08/10 11:12:58;;;;;;;3.60;2.38;;;;;;;23.22;58.65;94768.06;5028369;28;20196;-71
2023/08/10 11:15:25;;;;;;;3.78;2.80;;;;;;;23.34;57.53;94766.81;5029079;28;20204;-81
2023/08/10 11:17:54;;;;;;;3.45;2.85;;;;;;;23.45;57.02;94767.50;5027723;28;20210;-79
2023/08/10 11:20:22;;;;;;;3.35;2.60;;;;;;;23.91;56.08;94767.16;5029353;28;20212;-78
2023/08/10 11:22:49;;;;;;;2.83;2.20;;;;;;;24.21;55.76;94769.22;5029243;28;20216;-77
2023/08/10 11:25:19;;;;;;;3.20;2.58;;;;;;;23.81;57.17;94772.75;5028206;28;20197;-77
2023/08/10 11:27:47;;;;;;;2.55;2.33;;;;;;;23.67;57.15;94763.41;5028582;28;20236;-76
2023/08/10 11:30:16;;;;;;;4.32;2.50;;;;;;;23.48;58.75;94765.91;5029554;28;20351;-75
2023/08/10 11:32:44;;;;;;;3.33;2.58;;;;;;;23.86;58.61;94764.03;5029900;28;20213;-77
2023/08/10 11:35:14;;;;;;;3.55;2.58;;;;;;;24.07;56.66;94759.06;5029145;28;20219;-77
2023/08/10 11:37:42;;;;;;;4.30;1.70;;;;;;;24.07;53.64;94764.59;5029270;28;20210;-78
2023/08/10 11:40:12;;;;;;;2.53;1.65;;;;;;;23.49;54.93;94761.97;5043523;28;20589;-79